createdAt,value
2023-02-28T00:02:31.579Z,-0.85
2023-02-28T00:05:19.808Z,-0.92
2023-02-28T00:08:05.129Z,-1.11
2023-02-28T00:10:50.242Z,-1.07
2023-02-28T00:13:40.048Z,-1.16
2023-02-28T00:16:24.995Z,-1.13
2023-02-28T00:19:10.206Z,-1.14
2023-02-28T00:21:55.646Z,-1.23
2023-02-28T00:24:40.520Z,-1.29
2023-02-28T00:27:25.442Z,-1.36
2023-02-28T00:30:19.420Z,-1.33
2023-02-28T00:33:04.287Z,-1.34
2023-02-28T00:35:49.949Z,-1.20
2023-02-28T00:38:35.406Z,-1.34
2023-02-28T00:41:20.395Z,-1.43
2023-02-28T00:44:06.040Z,-1.46
2023-02-28T00:46:51.135Z,-1.41
2023-02-28T00:49:36.732Z,-1.34
2023-02-28T00:52:21.578Z,-1.31
2023-02-28T00:55:06.542Z,-1.34
2023-02-28T00:57:52.082Z,-1.28
2023-02-28T01:00:37.303Z,-1.31
2023-02-28T01:03:24.674Z,-1.29
2023-02-28T01:06:10.132Z,-1.32
2023-02-28T01:08:55.532Z,-1.37
2023-02-28T01:11:40.537Z,-1.24
2023-02-28T01:14:25.984Z,-1.26
2023-02-28T01:17:10.953Z,-1.28
2023-02-28T01:19:56.499Z,-1.27
2023-02-28T01:22:41.731Z,-1.36
2023-02-28T01:25:26.530Z,-1.43
2023-02-28T01:28:12.086Z,-1.36
2023-02-28T01:30:57.339Z,-1.26
2023-02-28T01:33:42.861Z,-1.37
2023-02-28T01:36:28.060Z,-1.28
2023-02-28T01:39:13.471Z,-1.44
2023-02-28T01:41:58.843Z,-1.48
2023-02-28T01:45:05.742Z,-1.55
2023-02-28T01:47:55.154Z,-1.47
2023-02-28T01:50:44.444Z,-1.31
2023-02-28T01:53:40.162Z,-1.34
2023-02-28T01:56:29.836Z,-1.48
2023-02-28T01:59:26.363Z,-1.51
2023-02-28T02:02:11.640Z,-1.79
2023-02-28T02:05:06.208Z,-1.87
2023-02-28T02:07:55.528Z,-1.87
2023-02-28T02:10:45.282Z,-1.88
2023-02-28T02:13:59.692Z,-1.87
2023-02-28T02:16:47.595Z,-1.96
2023-02-28T02:19:54.412Z,-1.95
2023-02-28T02:23:08.594Z,-1.99
2023-02-28T02:26:13.030Z,-2.04
2023-02-28T02:29:13.618Z,-2.08
2023-02-28T02:32:28.074Z,-2.19
2023-02-28T02:35:23.910Z,-2.23
2023-02-28T02:38:17.950Z,-2.13
2023-02-28T02:41:10.889Z,-2.08
2023-02-28T02:44:21.979Z,-2.09
2023-02-28T02:47:16.088Z,-2.15
2023-02-28T02:50:05.752Z,-2.28
2023-02-28T02:52:56.759Z,-2.23
2023-02-28T02:55:45.718Z,-2.42
2023-02-28T02:58:34.722Z,-2.40
2023-02-28T03:01:23.763Z,-2.40
2023-02-28T03:04:14.017Z,-2.32
2023-02-28T03:06:59.352Z,-2.40
2023-02-28T03:09:55.588Z,-2.26
2023-02-28T03:12:51.837Z,-2.33
2023-02-28T03:16:08.699Z,-2.37
2023-02-28T03:19:31.890Z,-2.41
2023-02-28T03:22:35.758Z,-2.41
2023-02-28T03:25:56.731Z,-2.48
2023-02-28T03:28:57.342Z,-2.42
2023-02-28T03:31:48.452Z,-2.56
2023-02-28T03:34:39.358Z,-2.58
2023-02-28T03:37:28.788Z,-2.58
2023-02-28T03:40:17.966Z,-2.62
2023-02-28T03:43:10.527Z,-2.58
2023-02-28T03:45:57.300Z,-2.55
2023-02-28T03:49:02.392Z,-2.61
2023-02-28T03:51:51.575Z,-2.62
2023-02-28T03:54:47.618Z,-2.64
2023-02-28T03:57:41.005Z,-2.65
2023-02-28T04:00:32.623Z,-2.68
2023-02-28T04:03:18.269Z,-2.56
2023-02-28T04:06:04.806Z,-2.44
2023-02-28T04:08:51.214Z,-2.58
2023-02-28T04:11:42.779Z,-2.54
2023-02-28T04:14:27.841Z,-2.43
2023-02-28T04:17:13.350Z,-2.54
2023-02-28T04:19:58.310Z,-2.52
2023-02-28T04:22:43.140Z,-2.43
2023-02-28T04:25:28.067Z,-2.41
2023-02-28T04:28:13.436Z,-2.37
2023-02-28T04:31:01.032Z,-2.51
2023-02-28T04:33:46.064Z,-2.43
2023-02-28T04:36:31.078Z,-2.54
2023-02-28T04:39:19.454Z,-2.58
2023-02-28T04:42:04.954Z,-2.61
2023-02-28T04:44:50.167Z,-2.77
2023-02-28T04:47:35.147Z,-2.94
2023-02-28T04:50:20.497Z,-3.09
2023-02-28T04:53:06.028Z,-3.34
2023-02-28T04:55:50.896Z,-3.39
2023-02-28T04:58:36.236Z,-3.42
2023-02-28T05:01:21.119Z,-3.43
2023-02-28T05:04:06.129Z,-3.56
2023-02-28T05:06:51.143Z,-3.45
2023-02-28T05:09:36.243Z,-3.54
2023-02-28T05:12:21.414Z,-3.52
2023-02-28T05:15:06.898Z,-3.55
2023-02-28T05:17:52.184Z,-3.53
2023-02-28T05:20:37.106Z,-3.52
2023-02-28T05:23:23.658Z,-3.58
2023-02-28T05:26:08.878Z,-3.70
2023-02-28T05:28:53.822Z,-3.68
2023-02-28T05:31:39.448Z,-3.67
2023-02-28T05:34:24.414Z,-3.37
2023-02-28T05:37:13.458Z,-3.42
2023-02-28T05:39:58.826Z,-3.57
2023-02-28T05:42:43.828Z,-3.50
2023-02-28T05:45:29.057Z,-3.71
2023-02-28T05:48:14.510Z,-3.66
2023-02-28T05:50:59.371Z,-3.66
2023-02-28T05:53:44.874Z,-3.65
2023-02-28T05:56:30.226Z,-3.71
2023-02-28T05:59:15.513Z,-3.72
2023-02-28T06:02:00.925Z,-3.75
2023-02-28T06:04:46.346Z,-3.93
2023-02-28T06:07:31.622Z,-3.96
2023-02-28T06:10:17.092Z,-3.91
2023-02-28T06:13:04.192Z,-4.10
2023-02-28T06:15:49.504Z,-4.07
2023-02-28T06:18:34.684Z,-4.11
2023-02-28T06:21:20.064Z,-4.20
2023-02-28T06:24:05.686Z,-4.23
2023-02-28T06:26:51.527Z,-4.36
2023-02-28T06:29:37.327Z,-4.44
2023-02-28T06:32:23.417Z,-4.44
2023-02-28T06:35:09.220Z,-4.53
2023-02-28T06:37:54.166Z,-4.46
2023-02-28T06:40:39.855Z,-4.47
2023-02-28T06:43:30.569Z,-4.13
2023-02-28T06:46:15.550Z,-3.80
2023-02-28T06:49:00.868Z,-3.52
2023-02-28T06:51:46.089Z,-2.58
2023-02-28T06:54:31.081Z,-2.54
2023-02-28T06:57:16.574Z,-2.17
2023-02-28T07:00:05.394Z,-1.99
2023-02-28T07:02:50.324Z,-1.72
2023-02-28T07:05:39.449Z,-1.57
2023-02-28T07:08:26.001Z,-1.03
2023-02-28T07:11:11.486Z,-1.11
2023-02-28T07:13:57.020Z,-1.27
2023-02-28T07:16:42.274Z,-1.00
2023-02-28T07:19:27.713Z,-0.86
2023-02-28T07:22:15.490Z,-0.40
2023-02-28T07:25:00.972Z,-0.31
2023-02-28T07:27:46.190Z,-0.17
2023-02-28T07:30:31.466Z,-0.19
2023-02-28T07:33:17.343Z,-0.18
2023-02-28T07:36:05.285Z,-0.40
2023-02-28T07:38:50.160Z,-0.32
2023-02-28T07:41:35.927Z,-0.42
2023-02-28T07:44:21.035Z,-0.31
2023-02-28T07:47:06.161Z,-0.30
2023-02-28T07:49:51.510Z,-0.28
2023-02-28T07:52:39.990Z,-0.52
2023-02-28T07:55:25.221Z,-0.46
2023-02-28T07:58:10.063Z,-0.43
2023-02-28T08:01:05.331Z,-0.24
2023-02-28T08:03:50.442Z,-0.08
2023-02-28T08:06:35.424Z,0.07
2023-02-28T08:09:21.249Z,0.22
2023-02-28T08:12:08.158Z,0.09
2023-02-28T08:14:53.700Z,0.22
2023-02-28T08:17:39.021Z,0.20
2023-02-28T08:20:25.801Z,0.52
2023-02-28T08:23:11.030Z,0.64
2023-02-28T08:25:57.103Z,0.75
2023-02-28T08:28:42.681Z,1.14
2023-02-28T08:31:28.414Z,1.39
2023-02-28T08:34:15.635Z,1.70
2023-02-28T08:37:00.800Z,1.84
2023-02-28T08:39:46.101Z,2.14
2023-02-28T08:42:33.422Z,2.39
2023-02-28T08:45:18.464Z,3.02
2023-02-28T08:48:03.960Z,3.19
2023-02-28T08:51:08.521Z,3.13
2023-02-28T08:53:55.417Z,2.82
2023-02-28T08:56:40.938Z,2.87
2023-02-28T08:59:26.573Z,2.85
2023-02-28T09:02:14.119Z,2.89
2023-02-28T09:04:59.612Z,3.10
2023-02-28T09:07:44.777Z,3.12
2023-02-28T09:10:29.682Z,3.72
2023-02-28T09:13:14.670Z,4.04
2023-02-28T09:16:02.511Z,3.79
2023-02-28T09:18:48.321Z,4.03
2023-02-28T09:21:33.717Z,3.62
2023-02-28T09:24:19.006Z,3.84
2023-02-28T09:27:05.835Z,4.31
2023-02-28T09:29:51.126Z,3.69
2023-02-28T09:32:36.305Z,3.94
2023-02-28T09:35:22.805Z,3.76
2023-02-28T09:38:08.112Z,3.51
2023-02-28T09:40:56.830Z,3.72
2023-02-28T09:43:47.714Z,3.87
2023-02-28T09:46:43.827Z,4.05
2023-02-28T09:49:43.266Z,4.10
2023-02-28T09:52:33.433Z,3.76
2023-02-28T09:55:46.447Z,3.44
2023-02-28T09:58:48.057Z,3.28
2023-02-28T10:01:44.296Z,3.13
2023-02-28T10:04:55.534Z,3.23
2023-02-28T10:08:20.208Z,3.49
2023-02-28T10:11:09.058Z,3.31
2023-02-28T10:14:05.843Z,3.29
2023-02-28T10:16:59.286Z,3.53
2023-02-28T10:19:51.255Z,3.36
2023-02-28T10:22:54.205Z,3.24
2023-02-28T10:25:40.654Z,3.31
2023-02-28T10:28:27.356Z,3.45
2023-02-28T10:31:18.251Z,3.32
2023-02-28T10:34:03.703Z,3.31
2023-02-28T10:36:50.289Z,3.32
2023-02-28T10:39:46.740Z,3.58
2023-02-28T10:42:32.848Z,3.56
2023-02-28T10:45:18.497Z,3.59
2023-02-28T10:48:16.104Z,4.02
2023-02-28T10:51:02.071Z,3.81
2023-02-28T10:54:01.048Z,4.25
2023-02-28T10:56:46.798Z,4.64
2023-02-28T10:59:32.452Z,4.98
2023-02-28T11:02:36.558Z,4.59
2023-02-28T11:05:26.777Z,4.36
2023-02-28T11:08:18.587Z,4.33
2023-02-28T11:11:06.753Z,4.21
2023-02-28T11:13:55.638Z,4.26
2023-02-28T11:16:40.634Z,4.09
2023-02-28T11:19:45.020Z,4.68
2023-02-28T11:22:33.760Z,4.57
2023-02-28T11:25:31.822Z,4.65
2023-02-28T11:28:34.967Z,4.73
2023-02-28T11:31:20.680Z,5.68
2023-02-28T11:34:25.290Z,5.90
2023-02-28T11:37:16.008Z,5.57
2023-02-28T11:40:01.475Z,5.73
2023-02-28T11:43:24.870Z,5.79
2023-02-28T11:46:31.598Z,6.46
2023-02-28T11:49:44.279Z,6.88
2023-02-28T11:52:41.578Z,6.25
2023-02-28T11:55:38.224Z,6.13
2023-02-28T11:58:48.678Z,6.49
2023-02-28T12:01:44.596Z,6.32
2023-02-28T12:05:11.629Z,5.98
2023-02-28T12:08:18.032Z,5.95
2023-02-28T12:11:22.333Z,5.55
2023-02-28T12:14:23.144Z,5.93
2023-02-28T12:17:33.628Z,6.43
2023-02-28T12:20:34.554Z,6.34
2023-02-28T12:23:44.586Z,5.94
2023-02-28T12:26:49.235Z,5.79
2023-02-28T12:29:43.238Z,5.93
2023-02-28T12:32:39.645Z,6.21
2023-02-28T12:39:12.099Z,6.30
2023-02-28T12:42:02.502Z,6.60
2023-02-28T12:44:52.666Z,7.20
2023-02-28T12:47:41.245Z,8.41
2023-02-28T12:50:27.665Z,7.08
2023-02-28T12:53:32.058Z,7.18
2023-02-28T12:56:51.407Z,7.11
2023-02-28T12:59:51.959Z,7.13
2023-02-28T13:03:05.278Z,6.55
2023-02-28T13:06:31.863Z,7.35
2023-02-28T13:09:18.582Z,7.63
2023-02-28T13:12:14.176Z,7.56
2023-02-28T13:15:26.823Z,7.36
2023-02-28T13:18:33.315Z,8.12
2023-02-28T13:21:30.838Z,8.37
2023-02-28T13:24:34.898Z,7.78
2023-02-28T13:27:36.030Z,8.34
2023-02-28T13:30:52.096Z,9.10
2023-02-28T13:33:57.508Z,9.04
2023-02-28T13:36:42.712Z,8.74
2023-02-28T13:39:37.700Z,8.74
2023-02-28T13:42:22.836Z,9.25
2023-02-28T13:45:08.231Z,9.11
2023-02-28T13:48:04.692Z,9.54
2023-02-28T13:50:50.507Z,8.25
2023-02-28T13:54:04.975Z,7.87
2023-02-28T13:56:55.601Z,8.21
2023-02-28T14:00:06.733Z,7.72
2023-02-28T14:03:15.268Z,7.99
2023-02-28T14:06:36.470Z,7.49
2023-02-28T14:09:39.033Z,8.28
2023-02-28T14:12:55.333Z,7.74
2023-02-28T14:15:57.129Z,7.66
2023-02-28T14:18:51.079Z,7.28
2023-02-28T14:21:44.135Z,7.28
2023-02-28T14:24:51.210Z,7.62
2023-02-28T14:27:50.590Z,7.73
2023-02-28T14:30:41.932Z,7.11
2023-02-28T14:33:50.941Z,7.61
2023-02-28T14:36:42.428Z,7.30
2023-02-28T14:39:29.818Z,7.43
2023-02-28T14:42:33.905Z,8.26
2023-02-28T14:45:20.940Z,8.88
2023-02-28T14:48:10.852Z,8.59
2023-02-28T14:51:01.254Z,8.11
2023-02-28T14:53:50.929Z,7.26
2023-02-28T14:56:39.413Z,7.57
2023-02-28T14:59:32.102Z,7.14
2023-02-28T15:02:19.887Z,7.15
2023-02-28T15:05:22.625Z,7.13
2023-02-28T15:08:15.211Z,6.86
2023-02-28T15:11:08.195Z,6.69
2023-02-28T15:13:55.678Z,6.48
2023-02-28T15:16:45.186Z,6.95
2023-02-28T15:19:33.560Z,6.54
2023-02-28T15:22:34.290Z,6.05
2023-02-28T15:25:22.490Z,6.35
2023-02-28T15:28:14.933Z,5.85
2023-02-28T15:31:04.213Z,5.94
2023-02-28T15:34:04.715Z,6.45
2023-02-28T15:36:50.261Z,5.77
2023-02-28T15:39:43.108Z,5.94
2023-02-28T15:42:30.188Z,6.31
2023-02-28T15:45:32.874Z,6.28
2023-02-28T15:48:26.451Z,6.86
2023-02-28T15:51:25.354Z,7.00
2023-02-28T15:54:20.220Z,6.55
2023-02-28T15:57:07.467Z,6.40
2023-02-28T16:00:02.914Z,6.95
2023-02-28T16:02:48.577Z,6.20
2023-02-28T16:05:33.714Z,7.00
2023-02-28T16:08:19.139Z,7.07
2023-02-28T16:11:04.743Z,6.65
2023-02-28T16:13:51.241Z,6.94
2023-02-28T16:16:44.061Z,6.86
2023-02-28T16:19:29.129Z,6.89
2023-02-28T16:22:14.693Z,6.35
2023-02-28T16:25:00.713Z,6.62
2023-02-28T16:27:50.279Z,6.12
2023-02-28T16:30:35.373Z,5.84
2023-02-28T16:33:20.889Z,5.45
2023-02-28T16:36:07.254Z,5.12
2023-02-28T16:38:52.265Z,4.88
2023-02-28T16:41:52.198Z,4.87
2023-02-28T16:44:37.439Z,4.92
2023-02-28T16:47:23.021Z,4.59
2023-02-28T16:50:21.125Z,4.40
2023-02-28T16:53:06.110Z,4.32
2023-02-28T16:55:51.485Z,4.38
2023-02-28T16:58:36.707Z,4.29
2023-02-28T17:01:22.179Z,4.26
2023-02-28T17:04:07.396Z,4.12
2023-02-28T17:06:52.757Z,4.14
2023-02-28T17:09:42.607Z,3.90
2023-02-28T17:12:28.752Z,3.76
2023-02-28T17:15:16.717Z,3.78
2023-02-28T17:18:02.554Z,3.76
2023-02-28T17:20:48.682Z,3.75
2023-02-28T17:23:33.666Z,3.58
2023-02-28T17:26:20.712Z,3.55
2023-02-28T17:29:11.710Z,3.53
2023-02-28T17:31:58.949Z,3.47
2023-02-28T17:34:46.064Z,3.31
2023-02-28T17:37:31.180Z,3.18
2023-02-28T17:40:19.851Z,3.13
2023-02-28T17:43:05.125Z,3.10
2023-02-28T17:45:50.636Z,3.16
2023-02-28T17:48:35.719Z,3.11
2023-02-28T17:51:23.280Z,3.01
2023-02-28T17:54:08.723Z,2.83
2023-02-28T17:56:54.125Z,2.73
2023-02-28T17:59:39.294Z,2.71
2023-02-28T18:02:24.298Z,2.61
2023-02-28T18:05:10.622Z,2.65
2023-02-28T18:07:55.552Z,2.60
2023-02-28T18:10:40.558Z,2.57
2023-02-28T18:13:27.437Z,2.55
2023-02-28T18:16:12.927Z,2.61
2023-02-28T18:18:58.131Z,2.46
2023-02-28T18:21:45.518Z,2.35
2023-02-28T18:24:30.926Z,2.50
2023-02-28T18:27:16.154Z,2.56
2023-02-28T18:30:01.936Z,2.49
2023-02-28T18:32:47.613Z,2.50
2023-02-28T18:35:32.740Z,2.49
2023-02-28T18:38:18.722Z,2.32
2023-02-28T18:41:06.326Z,2.36
2023-02-28T18:43:53.112Z,2.38
2023-02-28T18:46:38.368Z,2.34
2023-02-28T18:49:23.662Z,2.33
2023-02-28T18:52:08.831Z,2.27
2023-02-28T18:54:54.129Z,2.19
2023-02-28T18:57:39.538Z,2.10
2023-02-28T19:00:24.688Z,1.99
2023-02-28T19:03:09.918Z,1.88
2023-02-28T19:05:56.587Z,1.76
2023-02-28T19:08:42.179Z,1.71
2023-02-28T19:11:28.037Z,1.67
2023-02-28T19:14:13.102Z,1.63
2023-02-28T19:16:58.412Z,1.66
2023-02-28T19:19:43.253Z,1.52
2023-02-28T19:22:28.285Z,1.55
2023-02-28T19:25:13.323Z,1.45
2023-02-28T19:27:58.796Z,1.51
2023-02-28T19:30:48.654Z,1.58
2023-02-28T19:33:34.318Z,1.70
2023-02-28T19:36:20.800Z,1.54
2023-02-28T19:39:06.286Z,1.34
2023-02-28T19:41:51.513Z,1.24
2023-02-28T19:44:36.571Z,1.17
2023-02-28T19:47:21.849Z,1.06
2023-02-28T19:50:08.480Z,1.18
2023-02-28T19:52:53.476Z,1.10
2023-02-28T19:55:38.544Z,0.96
2023-02-28T19:58:23.879Z,0.93
2023-02-28T20:01:16.840Z,0.92
2023-02-28T20:04:02.486Z,0.82
2023-02-28T20:06:47.517Z,0.77
2023-02-28T20:09:33.052Z,0.77
2023-02-28T20:12:25.299Z,0.80
2023-02-28T20:15:10.619Z,0.76
2023-02-28T20:17:55.947Z,0.90
2023-02-28T20:20:41.272Z,0.84
2023-02-28T20:23:26.813Z,0.86
2023-02-28T20:26:12.885Z,0.70
2023-02-28T20:28:57.798Z,0.82
2023-02-28T20:31:43.005Z,0.75
2023-02-28T20:34:28.525Z,0.53
2023-02-28T20:37:13.837Z,0.47
2023-02-28T20:39:59.273Z,0.39
2023-02-28T20:42:44.722Z,0.35
2023-02-28T20:45:42.948Z,0.34
2023-02-28T20:48:30.092Z,0.39
2023-02-28T20:51:15.519Z,0.38
2023-02-28T20:54:00.847Z,0.42
2023-02-28T20:56:46.221Z,0.39
2023-02-28T20:59:31.608Z,0.33
2023-02-28T21:02:19.009Z,0.32
2023-02-28T21:05:04.370Z,0.29
2023-02-28T21:07:49.622Z,0.29
2023-02-28T21:10:34.814Z,0.29
2023-02-28T21:13:20.156Z,0.14
2023-02-28T21:16:07.748Z,0.14
2023-02-28T21:18:53.480Z,0.08
2023-02-28T21:21:41.880Z,0.05
2023-02-28T21:24:27.106Z,0.01
2023-02-28T21:27:12.296Z,-0.02
2023-02-28T21:30:04.745Z,0.10
2023-02-28T21:32:50.776Z,-0.03
2023-02-28T21:35:35.998Z,0.01
2023-02-28T21:38:21.353Z,0.03
2023-02-28T21:41:09.508Z,0.07
2023-02-28T21:43:55.958Z,0.01
2023-02-28T21:46:41.180Z,-0.09
2023-02-28T21:49:26.432Z,-0.15
2023-02-28T21:52:11.669Z,-0.02
2023-02-28T21:54:56.447Z,-0.05
2023-02-28T21:57:41.557Z,-0.12
2023-02-28T22:00:26.997Z,-0.10
2023-02-28T22:03:13.944Z,-0.26
2023-02-28T22:05:58.737Z,-0.34
2023-02-28T22:08:45.338Z,-0.39
2023-02-28T22:11:30.665Z,-0.35
2023-02-28T22:14:17.200Z,-0.34
2023-02-28T22:17:02.393Z,-0.31
2023-02-28T22:19:47.670Z,-0.41
2023-02-28T22:22:32.623Z,-0.35
2023-02-28T22:25:18.068Z,-0.29
2023-02-28T22:28:02.918Z,-0.30
2023-02-28T22:30:49.250Z,-0.48
2023-02-28T22:33:34.117Z,-0.60
2023-02-28T22:36:20.954Z,-0.51
2023-02-28T22:39:06.064Z,-0.57
2023-02-28T22:41:53.968Z,-0.49
2023-02-28T22:44:38.807Z,-0.50
2023-02-28T22:47:23.714Z,-0.37
2023-02-28T22:50:09.237Z,-0.43
2023-02-28T22:52:54.486Z,-0.40
2023-02-28T22:55:39.272Z,-0.44
2023-02-28T22:58:24.268Z,-0.52
2023-02-28T23:01:12.788Z,-0.63
2023-02-28T23:03:58.803Z,-0.74
2023-02-28T23:06:44.580Z,-0.76
2023-02-28T23:09:29.928Z,-0.56
2023-02-28T23:12:15.429Z,-0.59
2023-02-28T23:15:01.413Z,-0.60
2023-02-28T23:17:48.295Z,-0.62
2023-02-28T23:20:33.991Z,-0.57
2023-02-28T23:23:19.438Z,-0.57
2023-02-28T23:26:07.542Z,-0.67
2023-02-28T23:28:53.311Z,-0.65
2023-02-28T23:31:39.468Z,-0.68
2023-02-28T23:34:25.133Z,-0.73
2023-02-28T23:37:11.024Z,-0.98
2023-02-28T23:39:55.922Z,-1.14
2023-02-28T23:42:41.325Z,-1.20
2023-02-28T23:45:26.586Z,-1.22
2023-02-28T23:48:12.546Z,-0.92
2023-02-28T23:51:03.150Z,-1.03
2023-02-28T23:53:52.264Z,-1.12
2023-02-28T23:56:37.600Z,-1.21
2023-02-28T23:59:22.894Z,-1.18
